createdAt,value
2022-10-24T00:01:19.373Z,100.00
2022-10-24T00:03:47.578Z,100.00
2022-10-24T00:06:14.238Z,100.00
2022-10-24T00:08:42.454Z,100.00
2022-10-24T00:11:28.353Z,100.00
2022-10-24T00:13:57.103Z,100.00
2022-10-24T00:16:23.664Z,100.00
2022-10-24T00:18:50.264Z,100.00
2022-10-24T00:21:18.150Z,100.00
2022-10-24T00:23:45.490Z,100.00
2022-10-24T00:26:12.820Z,100.00
2022-10-24T00:28:41.036Z,100.00
2022-10-24T00:31:11.621Z,100.00
2022-10-24T00:33:38.328Z,100.00
2022-10-24T00:36:05.047Z,100.00
2022-10-24T00:38:31.709Z,100.00
2022-10-24T00:40:58.316Z,100.00
2022-10-24T00:43:27.060Z,100.00
2022-10-24T00:45:58.901Z,100.00
2022-10-24T00:48:28.449Z,100.00
2022-10-24T00:50:59.063Z,100.00
2022-10-24T00:53:27.088Z,100.00
2022-10-24T00:55:56.873Z,100.00
2022-10-24T00:58:27.651Z,100.00
2022-10-24T01:00:54.682Z,100.00
2022-10-24T01:03:21.745Z,100.00
2022-10-24T01:06:05.880Z,100.00
2022-10-24T01:08:47.387Z,100.00
2022-10-24T01:11:41.901Z,100.00
2022-10-24T01:14:17.688Z,100.00
2022-10-24T01:17:22.958Z,100.00
2022-10-24T01:20:29.972Z,100.00
2022-10-24T01:22:59.436Z,100.00
2022-10-24T01:25:53.633Z,100.00
2022-10-24T01:28:30.816Z,100.00
2022-10-24T01:31:09.757Z,100.00
2022-10-24T01:33:41.560Z,100.00
2022-10-24T01:36:12.825Z,100.00
2022-10-24T01:38:46.448Z,100.00
2022-10-24T01:41:17.354Z,100.00
2022-10-24T01:46:29.099Z,100.00
2022-10-24T01:49:02.946Z,100.00
2022-10-24T01:51:32.080Z,100.00
2022-10-24T01:53:58.760Z,100.00
2022-10-24T01:56:26.761Z,100.00
2022-10-24T01:58:53.350Z,100.00
2022-10-24T02:01:24.124Z,100.00
2022-10-24T02:03:57.247Z,100.00
2022-10-24T02:06:32.154Z,100.00
2022-10-24T02:09:06.151Z,100.00
2022-10-24T02:11:34.911Z,100.00
2022-10-24T02:14:18.550Z,100.00
2022-10-24T02:16:46.646Z,100.00
2022-10-24T02:19:14.491Z,100.00
2022-10-24T02:21:59.451Z,100.00
2022-10-24T02:24:40.800Z,100.00
2022-10-24T02:27:18.925Z,100.00
2022-10-24T02:29:51.705Z,100.00
2022-10-24T02:32:35.759Z,100.00
2022-10-24T02:35:06.285Z,100.00
2022-10-24T02:37:36.328Z,100.00
2022-10-24T02:40:07.080Z,100.00
2022-10-24T02:42:35.249Z,100.00
2022-10-24T02:45:03.196Z,100.00
2022-10-24T02:47:31.530Z,100.00
2022-10-24T02:49:58.215Z,100.00
2022-10-24T02:52:25.424Z,100.00
2022-10-24T02:54:52.047Z,100.00
2022-10-24T02:57:19.007Z,100.00
2022-10-24T02:59:45.646Z,100.00
2022-10-24T03:02:12.308Z,100.00
2022-10-24T03:04:38.866Z,100.00
2022-10-24T03:07:07.394Z,100.00
2022-10-24T03:09:35.130Z,100.00
2022-10-24T03:12:01.845Z,100.00
2022-10-24T03:14:28.674Z,100.00
2022-10-24T03:16:55.367Z,100.00
2022-10-24T03:19:21.988Z,100.00
2022-10-24T03:21:49.151Z,100.00
2022-10-24T03:24:22.827Z,100.00
2022-10-24T03:26:58.008Z,100.00
2022-10-24T03:29:24.632Z,100.00
2022-10-24T03:31:51.264Z,100.00
2022-10-24T03:34:18.029Z,100.00
2022-10-24T03:36:44.639Z,100.00
2022-10-24T03:39:11.243Z,100.00
2022-10-24T03:41:37.847Z,100.00
2022-10-24T03:44:04.586Z,100.00
2022-10-24T03:46:31.191Z,100.00
2022-10-24T03:48:57.875Z,100.00
2022-10-24T03:51:24.539Z,100.00
2022-10-24T03:53:51.105Z,100.00
2022-10-24T03:56:17.680Z,100.00
2022-10-24T03:58:44.306Z,100.00
2022-10-24T04:01:17.187Z,100.00
2022-10-24T04:03:47.588Z,100.00
2022-10-24T04:06:14.557Z,100.00
2022-10-24T04:08:41.192Z,100.00
2022-10-24T04:11:08.255Z,100.00
2022-10-24T04:13:34.913Z,100.00
2022-10-24T04:16:01.706Z,100.00
2022-10-24T04:18:28.571Z,100.00
2022-10-24T04:20:55.206Z,100.00
2022-10-24T04:23:21.801Z,100.00
2022-10-24T04:25:48.471Z,100.00
2022-10-24T04:28:15.148Z,100.00
2022-10-24T04:33:09.704Z,100.00
2022-10-24T04:35:36.448Z,100.00
2022-10-24T04:38:04.164Z,100.00
2022-10-24T04:40:33.414Z,100.00
2022-10-24T04:43:01.174Z,100.00
2022-10-24T04:45:30.431Z,100.00
2022-10-24T04:47:58.324Z,100.00
2022-10-24T04:50:26.187Z,100.00
2022-10-24T04:52:54.176Z,100.00
2022-10-24T04:55:21.738Z,100.00
2022-10-24T04:57:48.441Z,100.00
2022-10-24T05:00:16.923Z,100.00
2022-10-24T05:02:46.982Z,100.00
2022-10-24T05:05:17.635Z,100.00
2022-10-24T05:07:45.751Z,100.00
2022-10-24T05:10:15.999Z,100.00
2022-10-24T05:12:44.456Z,100.00
2022-10-24T05:15:11.976Z,100.00
2022-10-24T05:17:38.564Z,100.00
2022-10-24T05:20:05.740Z,100.00
2022-10-24T05:22:32.320Z,100.00
2022-10-24T05:24:59.016Z,100.00
2022-10-24T05:27:25.674Z,100.00
2022-10-24T05:29:53.143Z,100.00
2022-10-24T05:32:21.371Z,100.00
2022-10-24T05:34:47.997Z,100.00
2022-10-24T05:37:14.632Z,100.00
2022-10-24T05:39:41.293Z,100.00
2022-10-24T05:42:08.551Z,100.00
2022-10-24T05:44:35.154Z,100.00
2022-10-24T05:47:01.713Z,100.00
2022-10-24T05:49:28.245Z,100.00
2022-10-24T05:51:54.868Z,100.00
2022-10-24T05:54:21.504Z,100.00
2022-10-24T05:56:48.565Z,100.00
2022-10-24T05:59:15.166Z,100.00
2022-10-24T06:01:42.041Z,100.00
2022-10-24T06:04:12.812Z,100.00
2022-10-24T06:06:43.088Z,100.00
2022-10-24T06:09:11.489Z,100.00
2022-10-24T06:11:38.135Z,100.00
2022-10-24T06:14:06.122Z,100.00
2022-10-24T06:16:34.194Z,100.00
2022-10-24T06:19:01.009Z,100.00
2022-10-24T06:21:27.642Z,100.00
2022-10-24T06:23:54.237Z,100.00
2022-10-24T06:26:23.919Z,100.00
2022-10-24T06:28:50.978Z,100.00
2022-10-24T06:31:19.596Z,100.00
2022-10-24T06:33:46.182Z,100.00
2022-10-24T06:36:14.430Z,100.00
2022-10-24T06:38:41.194Z,100.00
2022-10-24T06:41:10.131Z,100.00
2022-10-24T06:43:37.832Z,100.00
2022-10-24T06:46:08.554Z,100.00
2022-10-24T06:48:36.759Z,100.00
2022-10-24T06:51:04.127Z,99.89
2022-10-24T06:53:30.783Z,99.19
2022-10-24T06:56:03.449Z,96.90
2022-10-24T06:58:34.592Z,98.01
2022-10-24T07:01:08.136Z,97.14
2022-10-24T07:03:34.895Z,97.17
2022-10-24T07:06:07.531Z,96.94
2022-10-24T07:08:34.134Z,96.05
2022-10-24T07:11:00.752Z,95.66
2022-10-24T07:13:27.482Z,94.47
2022-10-24T07:15:55.300Z,94.83
2022-10-24T07:18:22.136Z,91.98
2022-10-24T07:20:48.769Z,91.92
2022-10-24T07:23:15.419Z,89.73
2022-10-24T07:25:42.047Z,88.77
2022-10-24T07:28:11.235Z,88.82
2022-10-24T07:30:39.144Z,88.20
2022-10-24T07:33:06.133Z,89.60
2022-10-24T07:35:32.777Z,89.13
2022-10-24T07:37:59.398Z,84.84
2022-10-24T07:40:26.185Z,85.57
2022-10-24T07:42:52.804Z,82.45
2022-10-24T07:45:19.501Z,82.19
2022-10-24T07:47:46.389Z,82.60
2022-10-24T07:50:13.351Z,81.01
2022-10-24T07:52:39.957Z,79.82
2022-10-24T07:55:06.754Z,77.17
2022-10-24T07:57:33.387Z,75.76
2022-10-24T08:00:00.010Z,74.28
2022-10-24T08:02:26.790Z,73.34
2022-10-24T08:04:53.446Z,73.65
2022-10-24T08:07:20.035Z,72.74
2022-10-24T08:09:48.393Z,71.87
2022-10-24T08:12:15.041Z,70.07
2022-10-24T08:14:41.990Z,70.77
2022-10-24T08:17:09.327Z,68.32
2022-10-24T08:19:36.983Z,66.79
2022-10-24T08:22:03.958Z,66.86
2022-10-24T08:24:30.545Z,66.65
2022-10-24T08:26:57.326Z,64.96
2022-10-24T08:29:25.172Z,64.95
2022-10-24T08:31:55.778Z,64.07
2022-10-24T08:34:22.763Z,62.01
2022-10-24T08:36:51.208Z,61.26
2022-10-24T08:39:18.777Z,60.54
2022-10-24T08:41:57.892Z,59.24
2022-10-24T08:44:34.287Z,59.31
2022-10-24T08:47:22.439Z,57.80
2022-10-24T08:49:58.436Z,55.88
2022-10-24T08:52:45.718Z,55.48
2022-10-24T08:55:49.707Z,58.21
2022-10-24T08:58:30.141Z,55.32
2022-10-24T09:01:43.231Z,55.39
2022-10-24T09:04:16.255Z,53.21
2022-10-24T09:06:45.972Z,53.59
2022-10-24T09:09:21.070Z,54.76
2022-10-24T09:12:03.226Z,52.24
2022-10-24T09:14:42.258Z,51.56
2022-10-24T09:19:58.163Z,51.94
2022-10-24T09:22:28.691Z,51.78
2022-10-24T09:25:01.806Z,50.42
2022-10-24T09:27:32.284Z,50.18
2022-10-24T09:30:01.894Z,50.47
2022-10-24T09:32:33.245Z,49.55
2022-10-24T09:35:01.541Z,48.72
2022-10-24T09:37:44.470Z,48.68
2022-10-24T09:40:30.151Z,46.80
2022-10-24T09:42:56.789Z,45.59
2022-10-24T09:45:46.757Z,44.79
2022-10-24T09:48:29.164Z,45.16
2022-10-24T09:50:58.270Z,47.69
2022-10-24T09:53:28.916Z,46.70
2022-10-24T09:55:59.248Z,45.25
2022-10-24T09:58:32.683Z,45.27
2022-10-24T10:01:25.651Z,45.99
2022-10-24T10:04:08.814Z,47.43
2022-10-24T10:06:45.171Z,45.69
2022-10-24T10:09:31.500Z,45.49
2022-10-24T10:12:02.994Z,46.30
2022-10-24T10:14:30.431Z,46.38
2022-10-24T10:17:06.858Z,45.43
2022-10-24T10:19:37.785Z,45.50
2022-10-24T10:22:20.927Z,46.23
2022-10-24T10:24:48.281Z,45.96
2022-10-24T10:27:25.672Z,45.25
2022-10-24T10:30:16.978Z,45.93
2022-10-24T10:33:09.129Z,44.86
2022-10-24T10:36:05.067Z,46.09
2022-10-24T10:38:57.822Z,45.66
2022-10-24T10:41:36.415Z,46.37
2022-10-24T10:44:27.649Z,48.15
2022-10-24T10:47:06.642Z,47.95
2022-10-24T10:49:44.165Z,47.13
2022-10-24T10:52:29.911Z,46.48
2022-10-24T10:55:24.708Z,46.28
2022-10-24T10:58:14.792Z,44.21
2022-10-24T11:00:47.121Z,44.65
2022-10-24T11:03:37.608Z,43.85
2022-10-24T11:06:24.499Z,41.01
2022-10-24T11:09:21.760Z,39.08
2022-10-24T11:12:13.688Z,37.78
2022-10-24T11:14:45.150Z,36.40
2022-10-24T11:17:19.841Z,37.16
2022-10-24T11:20:14.109Z,36.75
2022-10-24T11:22:46.301Z,36.45
2022-10-24T11:25:42.655Z,34.63
2022-10-24T11:28:21.181Z,34.37
2022-10-24T11:30:55.682Z,34.17
2022-10-24T11:33:30.670Z,33.46
2022-10-24T11:36:30.828Z,35.04
2022-10-24T11:39:10.874Z,36.61
2022-10-24T11:42:01.641Z,37.35
2022-10-24T11:44:54.876Z,37.53
2022-10-24T11:47:24.385Z,37.75
2022-10-24T11:50:26.843Z,37.72
2022-10-24T11:53:02.122Z,36.62
2022-10-24T11:55:37.964Z,36.76
2022-10-24T11:58:13.233Z,37.83
2022-10-24T12:01:15.016Z,37.67
2022-10-24T12:04:12.119Z,36.38
2022-10-24T12:06:45.694Z,39.14
2022-10-24T12:09:29.579Z,37.64
2022-10-24T12:12:14.736Z,36.36
2022-10-24T12:15:25.735Z,34.64
2022-10-24T12:18:05.676Z,34.44
2022-10-24T12:20:33.593Z,32.79
2022-10-24T12:23:02.339Z,33.49
2022-10-24T12:25:39.532Z,35.27
2022-10-24T12:28:19.263Z,35.92
2022-10-24T12:31:15.040Z,35.97
2022-10-24T12:33:46.892Z,35.62
2022-10-24T12:36:14.157Z,35.33
2022-10-24T12:38:41.164Z,35.23
2022-10-24T12:41:33.343Z,34.27
2022-10-24T12:44:34.006Z,34.87
2022-10-24T12:47:17.107Z,31.97
2022-10-24T12:49:43.834Z,32.52
2022-10-24T12:52:45.995Z,33.18
2022-10-24T12:55:50.843Z,33.02
2022-10-24T12:58:34.384Z,33.95
2022-10-24T13:01:33.432Z,32.88
2022-10-24T13:04:11.867Z,32.84
2022-10-24T13:06:57.468Z,34.84
2022-10-24T13:09:48.563Z,34.50
2022-10-24T13:12:15.151Z,36.43
2022-10-24T13:14:44.600Z,34.37
2022-10-24T13:18:07.612Z,36.77
2022-10-24T13:20:39.975Z,34.86
2022-10-24T13:23:21.367Z,34.37
2022-10-24T13:25:53.357Z,38.65
2022-10-24T13:28:25.542Z,38.47
2022-10-24T13:31:17.670Z,37.76
2022-10-24T13:33:46.518Z,36.68
2022-10-24T13:36:27.857Z,36.47
2022-10-24T13:39:02.836Z,37.02
2022-10-24T13:41:49.058Z,37.35
2022-10-24T13:44:21.917Z,37.78
2022-10-24T13:46:59.000Z,38.39
2022-10-24T13:49:29.064Z,38.88
2022-10-24T13:52:00.296Z,38.00
2022-10-24T13:54:28.755Z,38.21
2022-10-24T13:57:01.984Z,38.82
2022-10-24T13:59:42.124Z,37.13
2022-10-24T14:02:23.282Z,38.06
2022-10-24T14:04:56.107Z,38.13
2022-10-24T14:07:35.949Z,37.36
2022-10-24T14:10:14.476Z,38.65
2022-10-24T14:12:41.690Z,39.11
2022-10-24T14:15:19.880Z,38.93
2022-10-24T14:18:03.239Z,40.11
2022-10-24T14:20:35.904Z,40.48
2022-10-24T14:23:03.235Z,39.74
2022-10-24T14:25:33.092Z,40.28
2022-10-24T14:28:09.287Z,39.55
2022-10-24T14:30:35.988Z,40.88
2022-10-24T14:33:25.712Z,41.55
2022-10-24T14:35:56.933Z,42.01
2022-10-24T14:38:26.913Z,42.61
2022-10-24T14:41:07.900Z,43.56
2022-10-24T14:43:39.949Z,44.04
2022-10-24T14:46:09.807Z,43.54
2022-10-24T14:48:36.904Z,44.06
2022-10-24T14:51:09.165Z,44.39
2022-10-24T14:53:38.486Z,44.57
2022-10-24T14:56:18.028Z,44.72
2022-10-24T14:58:44.672Z,45.14
2022-10-24T15:01:21.670Z,45.53
2022-10-24T15:04:06.806Z,47.36
2022-10-24T15:06:44.337Z,49.94
2022-10-24T15:09:10.888Z,50.75
2022-10-24T15:11:39.123Z,52.99
2022-10-24T15:14:26.052Z,54.94
2022-10-24T15:16:52.668Z,56.18
2022-10-24T15:19:19.461Z,55.45
2022-10-24T15:21:46.851Z,55.28
2022-10-24T15:24:25.087Z,57.48
2022-10-24T15:26:52.700Z,61.06
2022-10-24T15:29:21.897Z,60.85
2022-10-24T15:31:50.583Z,63.00
2022-10-24T15:34:21.500Z,63.29
2022-10-24T15:36:50.295Z,65.18
2022-10-24T15:39:22.038Z,65.52
2022-10-24T15:41:49.195Z,63.52
2022-10-24T15:44:28.541Z,63.68
2022-10-24T15:46:55.644Z,63.64
2022-10-24T15:49:22.565Z,64.24
2022-10-24T15:51:50.671Z,65.23
2022-10-24T15:54:19.775Z,66.14
2022-10-24T15:56:47.046Z,68.60
2022-10-24T15:59:14.023Z,69.99
2022-10-24T16:01:49.616Z,72.75
2022-10-24T16:04:17.699Z,75.04
2022-10-24T16:06:44.497Z,74.55
2022-10-24T16:09:16.208Z,75.12
2022-10-24T16:11:43.013Z,76.62
2022-10-24T16:14:15.660Z,77.35
2022-10-24T16:16:42.610Z,78.95
2022-10-24T16:19:12.186Z,79.10
2022-10-24T16:21:40.911Z,80.14
2022-10-24T16:24:08.903Z,81.74
2022-10-24T16:26:36.025Z,81.91
2022-10-24T16:29:02.634Z,83.40
2022-10-24T16:31:29.310Z,83.62
2022-10-24T16:33:56.060Z,83.80
2022-10-24T16:36:24.786Z,82.30
2022-10-24T16:38:52.087Z,84.82
2022-10-24T16:41:21.945Z,85.92
2022-10-24T16:43:50.085Z,89.58
2022-10-24T16:46:20.803Z,91.59
2022-10-24T16:48:48.412Z,92.30
2022-10-24T16:51:21.826Z,94.56
2022-10-24T16:53:48.686Z,93.51
2022-10-24T16:56:16.440Z,92.53
2022-10-24T16:58:43.370Z,91.98
2022-10-24T17:01:12.890Z,93.56
2022-10-24T17:03:40.016Z,93.72
2022-10-24T17:06:07.609Z,93.67
2022-10-24T17:08:34.557Z,93.54
2022-10-24T17:11:01.260Z,93.90
2022-10-24T17:13:28.935Z,94.50
2022-10-24T17:15:56.615Z,95.53
2022-10-24T17:18:25.432Z,97.05
2022-10-24T17:20:58.358Z,97.87
2022-10-24T17:23:25.417Z,95.43
2022-10-24T17:25:52.869Z,100.00
2022-10-24T17:28:19.834Z,98.52
2022-10-24T17:30:46.738Z,95.77
2022-10-24T17:33:16.793Z,93.46
2022-10-24T17:35:52.124Z,94.82
2022-10-24T17:38:29.010Z,96.16
2022-10-24T17:40:58.000Z,94.56
2022-10-24T17:43:27.087Z,98.73
2022-10-24T17:45:55.810Z,99.46
2022-10-24T17:48:23.527Z,100.00
2022-10-24T17:50:51.953Z,100.00
2022-10-24T17:53:19.021Z,100.00
2022-10-24T17:55:47.767Z,100.00
2022-10-24T17:58:16.092Z,98.63
2022-10-24T18:00:44.263Z,100.00
2022-10-24T18:03:11.830Z,100.00
2022-10-24T18:05:38.992Z,100.00
2022-10-24T18:08:08.183Z,100.00
2022-10-24T18:10:37.667Z,100.00
2022-10-24T18:13:05.149Z,100.00
2022-10-24T18:15:32.501Z,100.00
2022-10-24T18:17:59.330Z,100.00
2022-10-24T18:20:28.678Z,100.00
2022-10-24T18:22:55.286Z,100.00
2022-10-24T18:25:23.113Z,100.00
2022-10-24T18:27:51.119Z,100.00
2022-10-24T18:30:19.536Z,100.00
2022-10-24T18:32:47.278Z,100.00
2022-10-24T18:35:14.465Z,100.00
2022-10-24T18:37:41.322Z,100.00
2022-10-24T18:40:09.653Z,100.00
2022-10-24T18:42:58.191Z,100.00
2022-10-24T18:45:26.677Z,100.00
2022-10-24T18:47:54.254Z,100.00
2022-10-24T18:50:23.529Z,100.00
2022-10-24T18:52:56.280Z,100.00
2022-10-24T18:55:26.351Z,100.00
2022-10-24T18:57:53.265Z,100.00
2022-10-24T19:00:25.428Z,100.00
2022-10-24T19:03:22.300Z,100.00
2022-10-24T19:06:06.347Z,100.00
2022-10-24T19:08:33.110Z,100.00
2022-10-24T19:11:00.100Z,100.00
2022-10-24T19:13:27.256Z,100.00
2022-10-24T19:15:58.760Z,100.00
2022-10-24T19:18:27.399Z,100.00
2022-10-24T19:20:54.193Z,100.00
2022-10-24T19:23:20.828Z,100.00
2022-10-24T19:25:47.476Z,100.00
2022-10-24T19:28:19.337Z,100.00
2022-10-24T19:30:46.891Z,100.00
2022-10-24T19:33:14.911Z,100.00
2022-10-24T19:35:46.981Z,100.00
2022-10-24T19:38:15.364Z,100.00
2022-10-24T19:40:51.966Z,100.00
2022-10-24T19:43:19.848Z,100.00
2022-10-24T19:45:50.807Z,100.00
2022-10-24T19:48:32.359Z,100.00
2022-10-24T19:51:03.985Z,100.00
2022-10-24T19:53:34.519Z,100.00
2022-10-24T19:56:08.638Z,100.00
2022-10-24T19:58:35.424Z,100.00
2022-10-24T20:01:07.066Z,100.00
2022-10-24T20:03:58.699Z,100.00
2022-10-24T20:06:29.335Z,100.00
2022-10-24T20:08:56.015Z,100.00
2022-10-24T20:11:23.070Z,100.00
2022-10-24T20:13:50.520Z,100.00
2022-10-24T20:16:17.643Z,100.00
2022-10-24T20:18:44.233Z,100.00
2022-10-24T20:21:13.066Z,100.00
2022-10-24T20:23:42.755Z,100.00
2022-10-24T20:26:15.954Z,100.00
2022-10-24T20:28:44.919Z,100.00
2022-10-24T20:31:27.933Z,100.00
2022-10-24T20:34:00.117Z,100.00
2022-10-24T20:36:32.829Z,100.00
2022-10-24T20:39:01.659Z,100.00
2022-10-24T20:41:29.143Z,100.00
2022-10-24T20:43:56.231Z,100.00
2022-10-24T20:46:22.912Z,100.00
2022-10-24T20:48:49.619Z,100.00
2022-10-24T20:51:19.196Z,100.00
2022-10-24T20:53:46.398Z,100.00
2022-10-24T20:56:16.159Z,100.00
2022-10-24T20:58:44.387Z,100.00
2022-10-24T21:01:12.221Z,100.00
2022-10-24T21:03:38.899Z,100.00
2022-10-24T21:06:13.809Z,100.00
2022-10-24T21:08:40.409Z,100.00
2022-10-24T21:11:08.027Z,100.00
2022-10-24T21:13:34.735Z,100.00
2022-10-24T21:16:02.366Z,100.00
2022-10-24T21:18:28.924Z,100.00
2022-10-24T21:20:55.717Z,100.00
2022-10-24T21:23:22.291Z,100.00
2022-10-24T21:25:48.948Z,100.00
2022-10-24T21:28:15.559Z,100.00
2022-10-24T21:30:42.127Z,100.00
2022-10-24T21:33:10.743Z,100.00
2022-10-24T21:35:40.350Z,100.00
2022-10-24T21:38:07.022Z,100.00
2022-10-24T21:40:33.610Z,100.00
2022-10-24T21:43:01.101Z,100.00
2022-10-24T21:45:27.777Z,100.00
2022-10-24T21:47:54.349Z,100.00
2022-10-24T21:50:20.996Z,100.00
2022-10-24T21:52:48.070Z,100.00
2022-10-24T21:55:14.941Z,100.00
2022-10-24T21:57:41.504Z,100.00
2022-10-24T22:00:08.859Z,100.00
2022-10-24T22:02:35.617Z,100.00
2022-10-24T22:05:02.616Z,100.00
2022-10-24T22:07:29.203Z,100.00
2022-10-24T22:09:55.820Z,100.00
2022-10-24T22:12:22.371Z,100.00
2022-10-24T22:14:49.607Z,100.00
2022-10-24T22:17:16.169Z,100.00
2022-10-24T22:19:42.803Z,100.00
2022-10-24T22:22:09.369Z,100.00
2022-10-24T22:24:36.174Z,100.00
2022-10-24T22:27:02.777Z,100.00
2022-10-24T22:29:29.371Z,100.00
2022-10-24T22:31:56.316Z,100.00
2022-10-24T22:34:25.419Z,100.00
2022-10-24T22:37:11.250Z,100.00
2022-10-24T22:39:38.396Z,100.00
2022-10-24T22:42:14.689Z,100.00
2022-10-24T22:44:44.865Z,100.00
2022-10-24T22:47:39.882Z,100.00
2022-10-24T22:50:12.624Z,100.00
2022-10-24T22:52:39.446Z,100.00
2022-10-24T22:55:16.721Z,100.00
2022-10-24T22:57:43.582Z,100.00
2022-10-24T23:00:10.799Z,100.00
2022-10-24T23:02:44.806Z,100.00
2022-10-24T23:05:23.506Z,100.00
2022-10-24T23:08:01.203Z,100.00
2022-10-24T23:10:27.795Z,100.00
2022-10-24T23:12:54.921Z,100.00
2022-10-24T23:15:22.407Z,100.00
2022-10-24T23:17:49.830Z,100.00
2022-10-24T23:20:32.894Z,100.00
2022-10-24T23:23:16.184Z,100.00
2022-10-24T23:25:50.711Z,100.00
2022-10-24T23:28:21.212Z,100.00
2022-10-24T23:30:48.125Z,100.00
2022-10-24T23:33:23.077Z,100.00
2022-10-24T23:35:56.724Z,100.00
2022-10-24T23:38:23.866Z,100.00
2022-10-24T23:40:50.913Z,100.00
2022-10-24T23:43:20.403Z,100.00
2022-10-24T23:45:57.373Z,100.00
2022-10-24T23:48:36.122Z,100.00
2022-10-24T23:51:16.507Z,100.00
2022-10-24T23:53:53.096Z,100.00
2022-10-24T23:56:22.604Z,100.00
2022-10-24T23:58:49.933Z,100.00
